Kinmount, Canada
Current Conditions -  °F | °C
As of 3:00 AM on Wednesday 26 Nov 2014 (Local Time) from CYQA Reporting Station
Overcast Overcast  
Wind Chill: 28°   Ceiling: 2700
Heat Index: 28°   Visibility: 9mi
Dew Point: 25°   Wind: 2mph
Humidity: 86%   Direction: NA
Pressure: 30.18"   Gusts: NA
Location:  44.78°N, 78.65°W
Report Text: CYQA 260800Z AUTO VRB02KT 9SM OVC027 M02/M04 A3018 RMK SLP232
Loading
Personal Weather Stations






























Interactive Weather Map New forecast layout! Learn more

10-Day Weather Forecast

Advertisements
Track Severe Weather on mobile